sensor_id;sensor_type;location;lat;lon;timestamp;pressure;altitude;pressure_sealevel;temperature;humidity
74372;BME280;62885;51.374;6.170;2022-12-16T00:01:25;100744.16;;;-3.78;83.38
74372;BME280;62885;51.374;6.170;2022-12-16T00:03:52;100743.34;;;-3.80;83.07
74372;BME280;62885;51.374;6.170;2022-12-16T00:06:19;100737.91;;;-3.67;82.17
74372;BME280;62885;51.374;6.170;2022-12-16T00:08:45;100741.31;;;-3.62;82.14
74372;BME280;62885;51.374;6.170;2022-12-16T00:11:11;100745.78;;;-3.69;82.33
74372;BME280;62885;51.374;6.170;2022-12-16T00:13:37;100743.94;;;-3.62;81.91
74372;BME280;62885;51.374;6.170;2022-12-16T00:16:11;100752.44;;;-3.51;81.29
74372;BME280;62885;51.374;6.170;2022-12-16T00:18:37;100752.47;;;-3.53;81.47
74372;BME280;62885;51.374;6.170;2022-12-16T00:21:03;100755.78;;;-3.92;82.42
74372;BME280;62885;51.374;6.170;2022-12-16T00:23:30;100761.50;;;-3.72;82.69
74372;BME280;62885;51.374;6.170;2022-12-16T00:25:55;100759.47;;;-3.55;81.95
74372;BME280;62885;51.374;6.170;2022-12-16T00:28:21;100755.16;;;-3.56;81.67
74372;BME280;62885;51.374;6.170;2022-12-16T00:30:48;100749.91;;;-3.56;81.49
74372;BME280;62885;51.374;6.170;2022-12-16T00:33:15;100748.09;;;-3.52;81.83
74372;BME280;62885;51.374;6.170;2022-12-16T00:35:40;100741.25;;;-3.59;81.37
74372;BME280;62885;51.374;6.170;2022-12-16T00:38:05;100745.00;;;-3.74;81.91
74372;BME280;62885;51.374;6.170;2022-12-16T00:40:31;100750.13;;;-3.68;82.09
74372;BME280;62885;51.374;6.170;2022-12-16T00:42:56;100752.88;;;-3.77;81.72
74372;BME280;62885;51.374;6.170;2022-12-16T00:45:21;100759.63;;;-3.62;81.73
74372;BME280;62885;51.374;6.170;2022-12-16T00:47:48;100752.75;;;-3.68;81.76
74372;BME280;62885;51.374;6.170;2022-12-16T00:50:14;100754.63;;;-3.78;82.11
74372;BME280;62885;51.374;6.170;2022-12-16T00:52:40;100756.16;;;-3.64;81.75
74372;BME280;62885;51.374;6.170;2022-12-16T00:55:05;100755.84;;;-3.46;81.60
74372;BME280;62885;51.374;6.170;2022-12-16T00:57:32;100755.81;;;-3.45;81.43
74372;BME280;62885;51.374;6.170;2022-12-16T00:59:57;100758.53;;;-3.51;81.39
74372;BME280;62885;51.374;6.170;2022-12-16T01:02:23;100759.25;;;-3.43;80.23
74372;BME280;62885;51.374;6.170;2022-12-16T01:04:48;100760.22;;;-3.48;80.90
74372;BME280;62885;51.374;6.170;2022-12-16T01:07:14;100754.13;;;-3.49;81.33
74372;BME280;62885;51.374;6.170;2022-12-16T01:09:39;100756.72;;;-3.47;81.60
74372;BME280;62885;51.374;6.170;2022-12-16T01:12:05;100756.78;;;-3.50;80.94
74372;BME280;62885;51.374;6.170;2022-12-16T01:14:30;100755.19;;;-3.59;81.34
74372;BME280;62885;51.374;6.170;2022-12-16T01:16:59;100764.66;;;-3.52;81.45
74372;BME280;62885;51.374;6.170;2022-12-16T01:19:25;100767.41;;;-3.59;81.96
74372;BME280;62885;51.374;6.170;2022-12-16T01:21:50;100768.00;;;-3.44;81.00
74372;BME280;62885;51.374;6.170;2022-12-16T01:24:16;100766.50;;;-3.58;81.37
74372;BME280;62885;51.374;6.170;2022-12-16T01:26:41;100779.66;;;-3.61;81.57
74372;BME280;62885;51.374;6.170;2022-12-16T01:29:06;100786.50;;;-3.54;81.58
74372;BME280;62885;51.374;6.170;2022-12-16T01:31:32;100786.66;;;-3.62;81.74
74372;BME280;62885;51.374;6.170;2022-12-16T01:33:57;100787.22;;;-3.45;81.60
74372;BME280;62885;51.374;6.170;2022-12-16T01:36:23;100785.94;;;-3.24;80.54
74372;BME280;62885;51.374;6.170;2022-12-16T01:38:48;100798.91;;;-3.16;80.36
74372;BME280;62885;51.374;6.170;2022-12-16T01:41:15;100793.03;;;-3.29;80.91
74372;BME280;62885;51.374;6.170;2022-12-16T01:43:42;100797.63;;;-3.42;80.90
74372;BME280;62885;51.374;6.170;2022-12-16T01:48:59;100789.63;;;-3.33;80.63
74372;BME280;62885;51.374;6.170;2022-12-16T01:51:33;100800.31;;;-3.45;80.90
74372;BME280;62885;51.374;6.170;2022-12-16T01:54:12;100801.94;;;-3.39;81.14
74372;BME280;62885;51.374;6.170;2022-12-16T01:56:42;100807.28;;;-3.45;81.50
74372;BME280;62885;51.374;6.170;2022-12-16T01:59:10;100809.03;;;-3.46;80.64
74372;BME280;62885;51.374;6.170;2022-12-16T02:01:37;100803.78;;;-3.44;81.23
74372;BME280;62885;51.374;6.170;2022-12-16T02:04:03;100803.81;;;-3.46;80.71
74372;BME280;62885;51.374;6.170;2022-12-16T02:06:29;100814.31;;;-3.49;81.36
74372;BME280;62885;51.374;6.170;2022-12-16T02:08:57;100817.66;;;-3.41;81.06
74372;BME280;62885;51.374;6.170;2022-12-16T02:23:40;100820.31;;;-2.95;79.88
74372;BME280;62885;51.374;6.170;2022-12-16T02:26:31;100809.03;;;-2.98;79.53
74372;BME280;62885;51.374;6.170;2022-12-16T02:31:59;100796.56;;;-2.85;79.33
74372;BME280;62885;51.374;6.170;2022-12-16T02:34:48;100801.97;;;-2.95;79.56
74372;BME280;62885;51.374;6.170;2022-12-16T02:40:02;100792.34;;;-2.94;80.20
74372;BME280;62885;51.374;6.170;2022-12-16T02:42:35;100797.47;;;-2.88;79.99
74372;BME280;62885;51.374;6.170;2022-12-16T02:45:15;100805.34;;;-2.90;79.25
74372;BME280;62885;51.374;6.170;2022-12-16T02:47:43;100804.28;;;-2.79;80.17
74372;BME280;62885;51.374;6.170;2022-12-16T02:50:19;100806.25;;;-2.91;80.19
74372;BME280;62885;51.374;6.170;2022-12-16T02:52:45;100791.47;;;-2.93;80.83
74372;BME280;62885;51.374;6.170;2022-12-16T02:55:12;100793.22;;;-2.94;79.74
74372;BME280;62885;51.374;6.170;2022-12-16T02:57:52;100795.06;;;-2.99;81.13
74372;BME280;62885;51.374;6.170;2022-12-16T03:00:23;100799.13;;;-2.84;79.97
74372;BME280;62885;51.374;6.170;2022-12-16T03:03:12;100803.91;;;-2.61;79.04
74372;BME280;62885;51.374;6.170;2022-12-16T03:05:44;100812.47;;;-2.52;79.79
74372;BME280;62885;51.374;6.170;2022-12-16T03:08:25;100816.13;;;-2.60;79.05
74372;BME280;62885;51.374;6.170;2022-12-16T03:11:00;100820.47;;;-2.59;78.37
74372;BME280;62885;51.374;6.170;2022-12-16T03:13:29;100824.06;;;-2.63;78.37
74372;BME280;62885;51.374;6.170;2022-12-16T03:15:59;100826.69;;;-2.65;79.17
74372;BME280;62885;51.374;6.170;2022-12-16T03:18:25;100820.66;;;-2.68;80.36
74372;BME280;62885;51.374;6.170;2022-12-16T03:21:03;100838.31;;;-2.79;80.34
74372;BME280;62885;51.374;6.170;2022-12-16T03:23:40;100845.50;;;-2.89;80.69
74372;BME280;62885;51.374;6.170;2022-12-16T03:26:12;100844.81;;;-2.97;81.14
74372;BME280;62885;51.374;6.170;2022-12-16T03:28:44;100852.06;;;-3.13;82.65
74372;BME280;62885;51.374;6.170;2022-12-16T03:31:20;100843.22;;;-3.07;81.98
74372;BME280;62885;51.374;6.170;2022-12-16T03:33:57;100834.69;;;-3.17;82.33
74372;BME280;62885;51.374;6.170;2022-12-16T03:36:26;100835.47;;;-3.12;82.55
74372;BME280;62885;51.374;6.170;2022-12-16T03:38:53;100837.19;;;-3.11;82.58
74372;BME280;62885;51.374;6.170;2022-12-16T03:41:21;100850.19;;;-3.06;81.95
74372;BME280;62885;51.374;6.170;2022-12-16T03:43:48;100848.22;;;-2.94;81.57
74372;BME280;62885;51.374;6.170;2022-12-16T03:46:15;100849.97;;;-2.94;81.06
74372;BME280;62885;51.374;6.170;2022-12-16T03:48:45;100834.50;;;-3.08;81.20
74372;BME280;62885;51.374;6.170;2022-12-16T03:51:11;100848.31;;;-2.98;81.92
74372;BME280;62885;51.374;6.170;2022-12-16T03:53:36;100857.94;;;-3.00;81.50
74372;BME280;62885;51.374;6.170;2022-12-16T03:56:01;100854.47;;;-3.02;81.38
74372;BME280;62885;51.374;6.170;2022-12-16T03:58:27;100864.25;;;-3.10;82.10
74372;BME280;62885;51.374;6.170;2022-12-16T04:00:52;100857.19;;;-3.07;80.92
74372;BME280;62885;51.374;6.170;2022-12-16T04:03:18;100871.84;;;-2.97;81.35
74372;BME280;62885;51.374;6.170;2022-12-16T04:05:47;100878.97;;;-3.05;81.35
74372;BME280;62885;51.374;6.170;2022-12-16T04:08:12;100874.63;;;-3.06;82.31
74372;BME280;62885;51.374;6.170;2022-12-16T04:10:38;100862.19;;;-2.95;82.01
74372;BME280;62885;51.374;6.170;2022-12-16T04:13:22;100857.84;;;-2.94;81.72
74372;BME280;62885;51.374;6.170;2022-12-16T04:16:11;100855.84;;;-3.29;83.26
74372;BME280;62885;51.374;6.170;2022-12-16T04:18:56;100862.59;;;-3.16;83.40
74372;BME280;62885;51.374;6.170;2022-12-16T04:21:42;100868.66;;;-3.14;82.90
74372;BME280;62885;51.374;6.170;2022-12-16T04:24:40;100868.41;;;-2.99;82.45
74372;BME280;62885;51.374;6.170;2022-12-16T04:27:06;100869.22;;;-2.97;82.58
74372;BME280;62885;51.374;6.170;2022-12-16T04:29:49;100867.66;;;-3.05;81.60
74372;BME280;62885;51.374;6.170;2022-12-16T04:32:33;100862.41;;;-3.05;81.96
74372;BME280;62885;51.374;6.170;2022-12-16T04:35:17;100875.38;;;-2.98;82.43
74372;BME280;62885;51.374;6.170;2022-12-16T04:38:02;100872.56;;;-2.88;81.25
74372;BME280;62885;51.374;6.170;2022-12-16T04:40:46;100876.06;;;-2.90;81.95
74372;BME280;62885;51.374;6.170;2022-12-16T04:43:30;100878.91;;;-3.02;82.34
74372;BME280;62885;51.374;6.170;2022-12-16T04:46:14;100877.81;;;-2.88;81.75
74372;BME280;62885;51.374;6.170;2022-12-16T04:48:58;100885.78;;;-2.96;80.96
74372;BME280;62885;51.374;6.170;2022-12-16T04:51:42;100886.84;;;-3.06;82.12
74372;BME280;62885;51.374;6.170;2022-12-16T04:54:26;100885.97;;;-3.05;82.26
74372;BME280;62885;51.374;6.170;2022-12-16T04:57:10;100893.16;;;-3.16;83.73
74372;BME280;62885;51.374;6.170;2022-12-16T04:59:54;100897.47;;;-3.14;82.42
74372;BME280;62885;51.374;6.170;2022-12-16T05:02:38;100902.94;;;-3.27;83.50
74372;BME280;62885;51.374;6.170;2022-12-16T05:05:22;100906.19;;;-3.13;83.40
74372;BME280;62885;51.374;6.170;2022-12-16T05:08:06;100900.31;;;-3.27;84.21
74372;BME280;62885;51.374;6.170;2022-12-16T05:10:50;100908.97;;;-3.24;83.42
74372;BME280;62885;51.374;6.170;2022-12-16T05:13:34;100912.28;;;-3.13;83.10
74372;BME280;62885;51.374;6.170;2022-12-16T05:16:18;100915.75;;;-3.12;83.01
74372;BME280;62885;51.374;6.170;2022-12-16T05:19:01;100919.25;;;-3.12;82.64
74372;BME280;62885;51.374;6.170;2022-12-16T05:21:45;100920.06;;;-3.08;82.76
74372;BME280;62885;51.374;6.170;2022-12-16T05:24:29;100921.75;;;-3.04;82.69
74372;BME280;62885;51.374;6.170;2022-12-16T05:27:13;100933.09;;;-3.04;82.96
74372;BME280;62885;51.374;6.170;2022-12-16T05:29:57;100942.66;;;-3.03;82.39
74372;BME280;62885;51.374;6.170;2022-12-16T05:32:41;100937.88;;;-3.30;84.01
74372;BME280;62885;51.374;6.170;2022-12-16T05:35:25;100949.19;;;-3.28;83.77
74372;BME280;62885;51.374;6.170;2022-12-16T05:38:09;100957.66;;;-3.12;83.50
74372;BME280;62885;51.374;6.170;2022-12-16T05:40:53;100953.03;;;-2.97;83.29
74372;BME280;62885;51.374;6.170;2022-12-16T05:43:37;100962.53;;;-2.91;82.41
74372;BME280;62885;51.374;6.170;2022-12-16T05:46:21;100964.22;;;-2.87;82.65
74372;BME280;62885;51.374;6.170;2022-12-16T05:49:05;100959.66;;;-2.76;81.32
74372;BME280;62885;51.374;6.170;2022-12-16T05:51:48;100970.22;;;-2.80;82.49
74372;BME280;62885;51.374;6.170;2022-12-16T05:54:32;100975.47;;;-2.80;82.55
74372;BME280;62885;51.374;6.170;2022-12-16T05:57:16;100976.94;;;-2.66;81.32
74372;BME280;62885;51.374;6.170;2022-12-16T06:00:00;100981.09;;;-2.56;82.17
74372;BME280;62885;51.374;6.170;2022-12-16T06:02:44;100983.94;;;-2.66;81.55
74372;BME280;62885;51.374;6.170;2022-12-16T06:05:28;100976.94;;;-2.66;82.58
74372;BME280;62885;51.374;6.170;2022-12-16T06:08:12;100984.66;;;-2.57;82.54
74372;BME280;62885;51.374;6.170;2022-12-16T06:10:56;100993.94;;;-2.40;81.51
74372;BME280;62885;51.374;6.170;2022-12-16T06:13:40;100988.50;;;-2.30;80.58
74372;BME280;62885;51.374;6.170;2022-12-16T06:16:24;100995.81;;;-2.47;81.48
74372;BME280;62885;51.374;6.170;2022-12-16T06:19:08;100990.03;;;-2.64;82.19
74372;BME280;62885;51.374;6.170;2022-12-16T06:21:52;100991.78;;;-2.66;81.67
74372;BME280;62885;51.374;6.170;2022-12-16T06:24:36;100989.31;;;-2.74;81.69
74372;BME280;62885;51.374;6.170;2022-12-16T06:27:20;100987.53;;;-2.72;82.54
74372;BME280;62885;51.374;6.170;2022-12-16T06:30:04;100992.78;;;-2.73;81.79
74372;BME280;62885;51.374;6.170;2022-12-16T06:32:48;100992.75;;;-2.72;81.78
74372;BME280;62885;51.374;6.170;2022-12-16T06:35:32;101000.53;;;-2.67;82.64
74372;BME280;62885;51.374;6.170;2022-12-16T06:38:30;100997.88;;;-2.64;82.48
74372;BME280;62885;51.374;6.170;2022-12-16T06:41:14;101007.38;;;-2.57;81.22
74372;BME280;62885;51.374;6.170;2022-12-16T06:43:58;101007.88;;;-2.38;80.93
74372;BME280;62885;51.374;6.170;2022-12-16T06:46:41;101008.50;;;-2.24;81.67
74372;BME280;62885;51.374;6.170;2022-12-16T06:49:25;101020.00;;;-2.33;81.31
74372;BME280;62885;51.374;6.170;2022-12-16T06:52:09;101021.84;;;-2.36;80.69
74372;BME280;62885;51.374;6.170;2022-12-16T06:54:53;101020.97;;;-2.37;81.74
74372;BME280;62885;51.374;6.170;2022-12-16T06:57:37;101021.78;;;-2.33;80.95
74372;BME280;62885;51.374;6.170;2022-12-16T07:00:21;101019.84;;;-2.22;81.45
74372;BME280;62885;51.374;6.170;2022-12-16T07:03:05;101024.41;;;-2.33;80.72
74372;BME280;62885;51.374;6.170;2022-12-16T07:05:53;101034.78;;;-2.27;80.82
74372;BME280;62885;51.374;6.170;2022-12-16T07:08:37;101033.00;;;-2.27;81.50
74372;BME280;62885;51.374;6.170;2022-12-16T07:11:21;101039.28;;;-2.35;81.17
74372;BME280;62885;51.374;6.170;2022-12-16T07:14:05;101042.34;;;-2.12;80.32
74372;BME280;62885;51.374;6.170;2022-12-16T07:16:49;101049.13;;;-2.00;79.90
74372;BME280;62885;51.374;6.170;2022-12-16T07:19:35;101052.97;;;-2.18;81.32
74372;BME280;62885;51.374;6.170;2022-12-16T07:22:18;101054.41;;;-2.03;80.45
74372;BME280;62885;51.374;6.170;2022-12-16T07:25:03;101063.09;;;-1.98;80.82
74372;BME280;62885;51.374;6.170;2022-12-16T07:27:47;101067.59;;;-2.05;81.20
74372;BME280;62885;51.374;6.170;2022-12-16T07:30:31;101069.69;;;-2.24;81.35
74372;BME280;62885;51.374;6.170;2022-12-16T07:33:15;101076.09;;;-2.40;82.35
74372;BME280;62885;51.374;6.170;2022-12-16T07:35:59;101077.53;;;-2.24;81.82
74372;BME280;62885;51.374;6.170;2022-12-16T07:38:43;101080.69;;;-2.05;82.42
74372;BME280;62885;51.374;6.170;2022-12-16T07:41:26;101086.69;;;-1.98;80.66
74372;BME280;62885;51.374;6.170;2022-12-16T07:44:11;101090.13;;;-1.95;80.95
74372;BME280;62885;51.374;6.170;2022-12-16T07:46:54;101095.28;;;-1.92;80.79
74372;BME280;62885;51.374;6.170;2022-12-16T07:49:38;101097.69;;;-1.80;80.39
74372;BME280;62885;51.374;6.170;2022-12-16T07:52:22;101101.94;;;-1.73;80.37
74372;BME280;62885;51.374;6.170;2022-12-16T07:55:06;101101.81;;;-1.67;80.83
74372;BME280;62885;51.374;6.170;2022-12-16T07:57:51;101099.25;;;-1.70;81.08
74372;BME280;62885;51.374;6.170;2022-12-16T08:00:35;101102.00;;;-1.76;80.89
74372;BME280;62885;51.374;6.170;2022-12-16T08:03:19;101109.59;;;-1.62;81.87
74372;BME280;62885;51.374;6.170;2022-12-16T08:06:03;101106.75;;;-1.51;81.61
74372;BME280;62885;51.374;6.170;2022-12-16T08:08:47;101106.53;;;-1.41;81.19
74372;BME280;62885;51.374;6.170;2022-12-16T08:11:31;101110.06;;;-1.42;81.06
74372;BME280;62885;51.374;6.170;2022-12-16T08:14:15;101124.47;;;-1.62;82.01
74372;BME280;62885;51.374;6.170;2022-12-16T08:16:59;101129.84;;;-1.69;81.77
74372;BME280;62885;51.374;6.170;2022-12-16T08:19:43;101134.28;;;-1.72;82.34
74372;BME280;62885;51.374;6.170;2022-12-16T08:22:27;101143.91;;;-1.73;82.95
74372;BME280;62885;51.374;6.170;2022-12-16T08:25:11;101136.00;;;-1.70;82.32
74372;BME280;62885;51.374;6.170;2022-12-16T08:28:06;101142.22;;;-1.75;83.12
74372;BME280;62885;51.374;6.170;2022-12-16T08:30:50;101147.41;;;-1.72;82.72
74372;BME280;62885;51.374;6.170;2022-12-16T08:33:34;101148.38;;;-1.76;83.60
74372;BME280;62885;51.374;6.170;2022-12-16T08:36:18;101155.91;;;-1.59;83.13
74372;BME280;62885;51.374;6.170;2022-12-16T08:39:02;101162.63;;;-1.45;82.58
74372;BME280;62885;51.374;6.170;2022-12-16T08:41:46;101168.59;;;-1.37;83.20
74372;BME280;62885;51.374;6.170;2022-12-16T08:44:30;101172.88;;;-1.31;82.41
74372;BME280;62885;51.374;6.170;2022-12-16T08:47:14;101176.56;;;-1.41;83.57
74372;BME280;62885;51.374;6.170;2022-12-16T08:49:58;101187.09;;;-1.43;83.91
74372;BME280;62885;51.374;6.170;2022-12-16T08:52:43;101195.88;;;-1.45;83.23
74372;BME280;62885;51.374;6.170;2022-12-16T08:55:30;101203.06;;;-1.53;84.07
74372;BME280;62885;51.374;6.170;2022-12-16T08:58:14;101203.84;;;-1.50;84.39
74372;BME280;62885;51.374;6.170;2022-12-16T09:00:58;101207.22;;;-1.42;84.00
74372;BME280;62885;51.374;6.170;2022-12-16T09:03:42;101207.38;;;-1.51;83.97
74372;BME280;62885;51.374;6.170;2022-12-16T09:06:26;101214.25;;;-1.44;85.01
74372;BME280;62885;51.374;6.170;2022-12-16T09:09:10;101219.16;;;-1.27;83.90
74372;BME280;62885;51.374;6.170;2022-12-16T09:11:54;101219.34;;;-1.36;84.14
74372;BME280;62885;51.374;6.170;2022-12-16T09:14:38;101221.03;;;-1.34;83.82
74372;BME280;62885;51.374;6.170;2022-12-16T09:17:22;101222.75;;;-1.31;84.21
74372;BME280;62885;51.374;6.170;2022-12-16T09:20:06;101238.31;;;-1.22;83.80
74372;BME280;62885;51.374;6.170;2022-12-16T09:22:50;101230.53;;;-1.27;83.83
74372;BME280;62885;51.374;6.170;2022-12-16T09:25:34;101229.47;;;-1.16;83.64
74372;BME280;62885;51.374;6.170;2022-12-16T09:28:18;101234.69;;;-1.15;83.71
74372;BME280;62885;51.374;6.170;2022-12-16T09:31:02;101244.28;;;-1.12;82.85
74372;BME280;62885;51.374;6.170;2022-12-16T09:33:46;101247.81;;;-1.13;84.12
74372;BME280;62885;51.374;6.170;2022-12-16T09:36:30;101259.19;;;-1.14;83.93
74372;BME280;62885;51.374;6.170;2022-12-16T09:39:14;101251.97;;;-1.03;83.45
74372;BME280;62885;51.374;6.170;2022-12-16T09:42:05;101257.13;;;-0.99;83.40
74372;BME280;62885;51.374;6.170;2022-12-16T09:48:32;101264.50;;;-0.73;82.93
74372;BME280;62885;51.374;6.170;2022-12-16T09:51:22;101256.72;;;-0.77;82.72
74372;BME280;62885;51.374;6.170;2022-12-16T09:54:11;101272.47;;;-0.77;82.56
74372;BME280;62885;51.374;6.170;2022-12-16T09:57:00;101269.91;;;-0.80;82.86
74372;BME280;62885;51.374;6.170;2022-12-16T09:59:52;101272.47;;;-0.77;82.99
74372;BME280;62885;51.374;6.170;2022-12-16T10:02:38;101278.63;;;-0.77;82.04
74372;BME280;62885;51.374;6.170;2022-12-16T10:05:35;101278.56;;;-0.75;83.05
74372;BME280;62885;51.374;6.170;2022-12-16T10:08:53;101296.78;;;-0.66;82.96
74372;BME280;62885;51.374;6.170;2022-12-16T10:24:55;101280.00;;;-0.59;82.67
74372;BME280;62885;51.374;6.170;2022-12-16T10:27:44;101284.13;;;-0.48;82.48
74372;BME280;62885;51.374;6.170;2022-12-16T10:30:28;101277.91;;;-0.45;81.61
74372;BME280;62885;51.374;6.170;2022-12-16T10:33:14;101281.13;;;-0.31;81.70
74372;BME280;62885;51.374;6.170;2022-12-16T10:35:58;101289.78;;;-0.27;81.45
74372;BME280;62885;51.374;6.170;2022-12-16T10:38:54;101288.25;;;-0.36;82.17
74372;BME280;62885;51.374;6.170;2022-12-16T10:41:42;101294.41;;;-0.37;81.22
74372;BME280;62885;51.374;6.170;2022-12-16T10:44:33;101287.50;;;-0.43;82.46
74372;BME280;62885;51.374;6.170;2022-12-16T10:47:18;101298.66;;;-0.31;82.22
74372;BME280;62885;51.374;6.170;2022-12-16T10:50:03;101295.50;;;-0.47;83.05
74372;BME280;62885;51.374;6.170;2022-12-16T10:52:59;101290.19;;;-0.46;83.13
74372;BME280;62885;51.374;6.170;2022-12-16T10:56:02;101291.66;;;-0.32;82.59
74372;BME280;62885;51.374;6.170;2022-12-16T10:59:04;101288.91;;;-0.26;82.43
74372;BME280;62885;51.374;6.170;2022-12-16T11:02:00;101286.25;;;-0.25;82.27
74372;BME280;62885;51.374;6.170;2022-12-16T11:04:46;101283.28;;;-0.11;82.58
74372;BME280;62885;51.374;6.170;2022-12-16T11:10:35;101283.75;;;0.06;82.04
74372;BME280;62885;51.374;6.170;2022-12-16T11:13:26;101291.72;;;0.03;81.84
74372;BME280;62885;51.374;6.170;2022-12-16T11:19:01;101297.28;;;-0.09;83.21
74372;BME280;62885;51.374;6.170;2022-12-16T11:21:45;101297.00;;;0.03;82.91
74372;BME280;62885;51.374;6.170;2022-12-16T11:24:30;101303.69;;;-0.21;84.32
74372;BME280;62885;51.374;6.170;2022-12-16T11:27:21;101306.88;;;-0.07;83.89
74372;BME280;62885;51.374;6.170;2022-12-16T11:32:58;101307.41;;;0.08;83.05
74372;BME280;62885;51.374;6.170;2022-12-16T11:35:52;101309.84;;;-0.22;83.93
74372;BME280;62885;51.374;6.170;2022-12-16T11:38:41;101314.72;;;-0.05;84.60
74372;BME280;62885;51.374;6.170;2022-12-16T11:41:29;101311.00;;;0.05;83.40
74372;BME280;62885;51.374;6.170;2022-12-16T11:44:18;101313.94;;;-0.09;84.32
74372;BME280;62885;51.374;6.170;2022-12-16T11:47:10;101326.81;;;0.04;83.98
74372;BME280;62885;51.374;6.170;2022-12-16T11:49:59;101318.75;;;0.11;83.63
74372;BME280;62885;51.374;6.170;2022-12-16T11:52:50;101325.69;;;0.14;84.08
74372;BME280;62885;51.374;6.170;2022-12-16T11:55:40;101322.19;;;0.13;84.11
74372;BME280;62885;51.374;6.170;2022-12-16T12:04:06;101316.59;;;0.28;83.76
74372;BME280;62885;51.374;6.170;2022-12-16T12:07:05;101324.66;;;0.21;85.30
74372;BME280;62885;51.374;6.170;2022-12-16T12:10:14;101319.16;;;0.30;84.94
74372;BME280;62885;51.374;6.170;2022-12-16T12:13:04;101327.75;;;0.38;84.43
74372;BME280;62885;51.374;6.170;2022-12-16T12:16:14;101322.81;;;0.24;84.83
74372;BME280;62885;51.374;6.170;2022-12-16T12:19:09;101318.53;;;0.20;84.99
74372;BME280;62885;51.374;6.170;2022-12-16T12:22:08;101326.16;;;0.31;84.62
74372;BME280;62885;51.374;6.170;2022-12-16T12:31:00;101322.31;;;0.46;84.56
74372;BME280;62885;51.374;6.170;2022-12-16T12:34:02;101323.66;;;0.26;85.36
74372;BME280;62885;51.374;6.170;2022-12-16T12:37:08;101325.53;;;0.21;86.49
74372;BME280;62885;51.374;6.170;2022-12-16T12:40:08;101318.13;;;0.35;86.33
74372;BME280;62885;51.374;6.170;2022-12-16T12:42:55;101326.09;;;0.34;86.15
74372;BME280;62885;51.374;6.170;2022-12-16T12:46:04;101322.75;;;0.27;86.40
74372;BME280;62885;51.374;6.170;2022-12-16T12:49:10;101334.06;;;0.31;87.38
74372;BME280;62885;51.374;6.170;2022-12-16T12:52:22;101325.69;;;0.14;87.84
74372;BME280;62885;51.374;6.170;2022-12-16T12:55:21;101321.94;;;0.24;87.49
74372;BME280;62885;51.374;6.170;2022-12-16T12:58:09;101343.47;;;0.04;89.30
74372;BME280;62885;51.374;6.170;2022-12-16T13:00:56;101330.56;;;0.30;88.94
74372;BME280;62885;51.374;6.170;2022-12-16T13:03:46;101332.41;;;0.27;88.84
74372;BME280;62885;51.374;6.170;2022-12-16T13:06:36;101342.81;;;0.31;89.09
74372;BME280;62885;51.374;6.170;2022-12-16T13:20:52;101361.91;;;0.04;91.32
74372;BME280;62885;51.374;6.170;2022-12-16T13:23:43;101363.66;;;0.04;91.28
74372;BME280;62885;51.374;6.170;2022-12-16T13:26:33;101365.44;;;0.03;91.25
74372;BME280;62885;51.374;6.170;2022-12-16T13:29:31;101376.41;;;0.22;91.63
74372;BME280;62885;51.374;6.170;2022-12-16T13:32:16;101373.25;;;0.06;91.34
74372;BME280;62885;51.374;6.170;2022-12-16T13:37:55;101378.81;;;-0.06;91.67
74372;BME280;62885;51.374;6.170;2022-12-16T13:43:58;101381.50;;;-0.11;91.92
74372;BME280;62885;51.374;6.170;2022-12-16T13:46:52;101374.47;;;-0.10;92.05
74372;BME280;62885;51.374;6.170;2022-12-16T13:49:52;101386.69;;;-0.06;91.90
74372;BME280;62885;51.374;6.170;2022-12-16T14:04:14;101404.66;;;0.15;90.49
74372;BME280;62885;51.374;6.170;2022-12-16T14:07:03;101400.13;;;0.22;91.01
74372;BME280;62885;51.374;6.170;2022-12-16T14:09:48;101399.66;;;0.02;90.93
74372;BME280;62885;51.374;6.170;2022-12-16T14:22:58;101418.56;;;-0.20;91.40
74372;BME280;62885;51.374;6.170;2022-12-16T14:25:45;101420.25;;;-0.17;91.77
74372;BME280;62885;51.374;6.170;2022-12-16T14:28:38;101431.16;;;0.06;90.70
74372;BME280;62885;51.374;6.170;2022-12-16T14:31:48;101433.88;;;0.02;90.61
74372;BME280;62885;51.374;6.170;2022-12-16T14:34:34;101434.38;;;0.19;90.34
74372;BME280;62885;51.374;6.170;2022-12-16T14:37:28;101442.25;;;0.22;90.23
74372;BME280;62885;51.374;6.170;2022-12-16T14:40:27;101449.13;;;-0.14;91.14
74372;BME280;62885;51.374;6.170;2022-12-16T14:43:20;101452.25;;;0.05;91.71
74372;BME280;62885;51.374;6.170;2022-12-16T14:46:05;101460.81;;;0.14;91.30
74372;BME280;62885;51.374;6.170;2022-12-16T14:48:50;101456.34;;;0.18;90.58
74372;BME280;62885;51.374;6.170;2022-12-16T14:51:44;101460.47;;;0.29;90.02
74372;BME280;62885;51.374;6.170;2022-12-16T14:54:44;101461.81;;;0.09;90.26
74372;BME280;62885;51.374;6.170;2022-12-16T14:57:31;101457.28;;;-0.28;91.39
74372;BME280;62885;51.374;6.170;2022-12-16T15:00:18;101473.72;;;-0.15;91.38
74372;BME280;62885;51.374;6.170;2022-12-16T15:06:10;101482.59;;;-0.21;91.93
74372;BME280;62885;51.374;6.170;2022-12-16T15:09:02;101494.38;;;0.05;91.34
74372;BME280;62885;51.374;6.170;2022-12-16T15:11:49;101483.28;;;0.30;90.73
74372;BME280;62885;51.374;6.170;2022-12-16T15:14:37;101503.31;;;0.37;89.60
74372;BME280;62885;51.374;6.170;2022-12-16T15:17:24;101507.03;;;0.29;90.20
74372;BME280;62885;51.374;6.170;2022-12-16T15:20:19;101509.56;;;0.35;89.16
74372;BME280;62885;51.374;6.170;2022-12-16T15:23:14;101509.38;;;0.41;89.44
74372;BME280;62885;51.374;6.170;2022-12-16T15:26:01;101524.00;;;0.56;88.87
74372;BME280;62885;51.374;6.170;2022-12-16T15:28:45;101524.56;;;0.30;89.82
74372;BME280;62885;51.374;6.170;2022-12-16T15:31:33;101527.25;;;0.28;90.27
74372;BME280;62885;51.374;6.170;2022-12-16T15:34:52;101535.47;;;0.12;90.39
74372;BME280;62885;51.374;6.170;2022-12-16T15:37:38;101530.16;;;0.13;90.45
74372;BME280;62885;51.374;6.170;2022-12-16T15:40:29;101531.81;;;0.19;90.49
74372;BME280;62885;51.374;6.170;2022-12-16T15:43:27;101537.06;;;0.19;90.86
74372;BME280;62885;51.374;6.170;2022-12-16T15:46:18;101539.81;;;0.14;90.29
74372;BME280;62885;51.374;6.170;2022-12-16T15:49:03;101547.81;;;0.08;90.95
74372;BME280;62885;51.374;6.170;2022-12-16T15:51:49;101547.06;;;0.02;90.50